Time;durP1;ratioP1;P1;durP2;ratioP2;P2;SDS_P1;SDS_P2;PMS_P1;PMS_P2;Temp;Humidity;BMP_temperature;BMP_pressure;BME280_temperature;BME280_humidity;BME280_pressure;Samples;Min_cycle;Max_cycle;Signal;HPM_P1;HPM_P2
2022/10/18 00:03:38;;;;;;;;;;;15.40;99.90;;;;;;8363787;28;19932;-81
2022/10/18 00:07:40;;;;;;;;;;;15.40;99.90;;;;;;8363121;28;20342;-81
2022/10/18 00:11:42;;;;;;;;;;;15.30;99.90;;;;;;8368415;28;19929;-80
2022/10/18 00:16:03;;;;;;;;;;;15.30;99.90;;;;;;8380648;28;19928;-81
2022/10/18 00:20:05;;;;;;;;;;;15.30;99.90;;;;;;8362973;28;20388;-81
2022/10/18 00:24:07;;;;;;;;;;;15.30;99.90;;;;;;8373095;28;19928;-81
2022/10/18 00:28:08;;;;;;;;;;;15.30;99.90;;;;;;8393411;28;19928;-80
2022/10/18 00:32:11;;;;;;;;;;;15.30;99.90;;;;;;8389889;28;19928;-80
2022/10/18 00:36:12;;;;;;;;;;;15.20;99.90;;;;;;8378153;28;20072;-80
2022/10/18 00:40:14;;;;;;;;;;;15.20;99.90;;;;;;8365208;28;19928;-81
2022/10/18 00:44:16;;;;;;;;;;;15.20;99.90;;;;;;8371902;28;19937;-80
2022/10/18 00:48:18;;;;;;;;;;;15.20;99.90;;;;;;8387205;28;20063;-80
2022/10/18 00:52:21;;;;;;;;;;;15.10;99.90;;;;;;8365741;28;20118;-80
2022/10/18 00:56:23;;;;;;;;;;;15.10;99.90;;;;;;8365683;28;19933;-81
2022/10/18 01:15:29;;;;;;;;;;;15.00;99.90;;;;;;8342298;28;20473;-82
2022/10/18 01:19:46;;;;;;;;;;;15.00;99.90;;;;;;8359264;28;19939;-82
2022/10/18 01:23:47;;;;;;;;;;;15.00;99.90;;;;;;8365183;28;20357;-83
2022/10/18 01:27:57;;;;;;;;;;;14.90;99.90;;;;;;8345882;28;20027;-81
2022/10/18 01:32:01;;;;;;;;;;;14.90;99.90;;;;;;8384897;28;19932;-82
2022/10/18 01:36:05;;;;;;;;;;;15.00;99.90;;;;;;8365976;28;19929;-83
2022/10/18 01:40:08;;;;;;;;;;;15.00;99.90;;;;;;8372516;28;19936;-83
2022/10/18 01:44:11;;;;;;;;;;;15.00;99.90;;;;;;8366046;28;19939;-82
2022/10/18 01:58:22;;;;;;;;;;;14.90;99.90;;;;;;8367076;28;19924;-83
2022/10/18 02:02:39;;;;;;;;;;;14.90;99.90;;;;;;8363063;28;19925;-83
2022/10/18 02:06:42;;;;;;;;;;;15.00;99.90;;;;;;8371970;28;19943;-83
2022/10/18 02:10:55;;;;;;;;;;;14.90;99.90;;;;;;8391898;28;19932;-83
2022/10/18 02:14:58;;;;;;;;;;;14.90;99.90;;;;;;8384289;28;19924;-83
2022/10/18 02:19:03;;;;;;;;;;;14.90;99.90;;;;;;8365243;28;19933;-82
2022/10/18 02:23:06;;;;;;;;;;;14.90;99.90;;;;;;8390134;28;19925;-83
2022/10/18 02:27:08;;;;;;;;;;;14.90;99.90;;;;;;8352033;28;20375;-83
2022/10/18 02:31:25;;;;;;;;;;;14.90;99.90;;;;;;8393452;28;20309;-82
2022/10/18 02:35:32;;;;;;;;;;;14.80;99.90;;;;;;8394115;28;20417;-83
2022/10/18 02:39:35;;;;;;;;;;;14.80;99.90;;;;;;8363949;28;20417;-82
2022/10/18 02:43:37;;;;;;;;;;;14.80;99.90;;;;;;8365346;28;20295;-83
2022/10/18 02:47:38;;;;;;;;;;;14.70;99.90;;;;;;8358062;28;19933;-82
2022/10/18 02:51:40;;;;;;;;;;;14.70;99.90;;;;;;8369052;28;19933;-83
2022/10/18 02:55:42;;;;;;;;;;;14.70;99.90;;;;;;8373584;28;20011;-82
2022/10/18 02:59:43;;;;;;;;;;;14.60;99.90;;;;;;8366568;28;19951;-82
2022/10/18 03:03:45;;;;;;;;;;;14.60;99.90;;;;;;8368998;28;19925;-83
2022/10/18 03:07:46;;;;;;;;;;;14.60;99.90;;;;;;8371828;28;19931;-82
2022/10/18 03:11:48;;;;;;;;;;;14.60;99.90;;;;;;8363848;28;19935;-82
2022/10/18 03:15:50;;;;;;;;;;;14.50;99.90;;;;;;8354781;28;19929;-82
2022/10/18 03:19:51;;;;;;;;;;;14.40;99.90;;;;;;8366879;28;20041;-81
2022/10/18 03:23:53;;;;;;;;;;;14.30;99.90;;;;;;8366405;28;19939;-82
2022/10/18 03:27:54;;;;;;;;;;;14.30;99.90;;;;;;8345528;28;19932;-82
2022/10/18 03:31:56;;;;;;;;;;;14.30;99.90;;;;;;8366367;28;19928;-83
2022/10/18 03:35:58;;;;;;;;;;;14.20;99.90;;;;;;8378118;28;20291;-83
2022/10/18 03:39:59;;;;;;;;;;;14.20;99.90;;;;;;8383837;28;20307;-84
2022/10/18 03:44:01;;;;;;;;;;;14.20;99.90;;;;;;8375169;28;20394;-82
2022/10/18 03:48:03;;;;;;;;;;;14.20;99.90;;;;;;8365571;28;19939;-83
2022/10/18 03:52:04;;;;;;;;;;;14.10;99.90;;;;;;8373770;28;20024;-83
2022/10/18 03:56:06;;;;;;;;;;;14.10;99.90;;;;;;8361821;28;19932;-82
2022/10/18 04:00:08;;;;;;;;;;;14.00;99.90;;;;;;8367344;28;20030;-83
2022/10/18 04:04:09;;;;;;;;;;;14.00;99.90;;;;;;8345863;28;20303;-81
2022/10/18 04:08:11;;;;;;;;;;;13.90;99.90;;;;;;8371173;28;19943;-80
2022/10/18 04:12:13;;;;;;;;;;;13.90;99.90;;;;;;8369604;28;20295;-82
2022/10/18 04:16:14;;;;;;;;;;;13.90;99.90;;;;;;8367817;28;19935;-81
2022/10/18 04:20:16;;;;;;;;;;;13.90;99.90;;;;;;8353879;28;19968;-84
2022/10/18 04:24:18;;;;;;;;;;;13.90;99.90;;;;;;8367233;28;19929;-82
2022/10/18 04:28:19;;;;;;;;;;;13.90;99.90;;;;;;8393372;28;19947;-81
2022/10/18 04:32:21;;;;;;;;;;;13.80;99.90;;;;;;8391197;28;19925;-82
2022/10/18 04:36:23;;;;;;;;;;;13.80;99.90;;;;;;8378477;28;19935;-82
2022/10/18 04:40:24;;;;;;;;;;;13.80;99.90;;;;;;8394183;28;19925;-82
2022/10/18 04:44:26;;;;;;;;;;;13.80;99.90;;;;;;8377204;28;19932;-82
2022/10/18 04:48:27;;;;;;;;;;;13.80;99.90;;;;;;8390511;28;19933;-81
2022/10/18 04:52:29;;;;;;;;;;;13.70;99.90;;;;;;8393117;28;19924;-81
2022/10/18 04:56:31;;;;;;;;;;;13.70;99.90;;;;;;8397224;28;19932;-82
2022/10/18 05:00:33;;;;;;;;;;;13.70;99.90;;;;;;8388577;28;19931;-82
2022/10/18 05:04:39;;;;;;;;;;;13.60;99.90;;;;;;8396534;28;19990;-82
2022/10/18 05:08:41;;;;;;;;;;;13.50;99.90;;;;;;8389904;28;19928;-81
2022/10/18 05:12:42;;;;;;;;;;;13.50;99.90;;;;;;8393710;28;20376;-82
2022/10/18 05:16:44;;;;;;;;;;;13.50;99.90;;;;;;8371072;28;19929;-82
2022/10/18 05:20:46;;;;;;;;;;;13.50;99.90;;;;;;8386028;28;20317;-82
2022/10/18 05:24:47;;;;;;;;;;;13.50;99.90;;;;;;8391673;28;19935;-82
2022/10/18 05:28:49;;;;;;;;;;;13.50;99.90;;;;;;8388831;28;20432;-81
2022/10/18 05:32:51;;;;;;;;;;;13.40;99.90;;;;;;8372352;28;19936;-82
2022/10/18 05:36:52;;;;;;;;;;;13.40;99.90;;;;;;8379117;28;19925;-81
2022/10/18 05:40:54;;;;;;;;;;;13.40;99.90;;;;;;8412902;28;19971;-81
2022/10/18 05:44:56;;;;;;;;;;;13.30;99.90;;;;;;8375861;28;19968;-81
2022/10/18 05:48:57;;;;;;;;;;;13.30;99.90;;;;;;8375714;28;19924;-81
2022/10/18 05:52:59;;;;;;;;;;;13.30;99.90;;;;;;8374920;28;19931;-81
2022/10/18 05:57:12;;;;;;;;;;;13.30;99.90;;;;;;8407377;28;20014;-81
2022/10/18 06:01:14;;;;;;;;;;;13.30;99.90;;;;;;8387385;28;19935;-81
2022/10/18 06:05:15;;;;;;;;;;;13.30;99.90;;;;;;8391988;28;20386;-81
2022/10/18 06:09:17;;;;;;;;;;;13.20;99.90;;;;;;8391122;28;19931;-81
2022/10/18 06:13:19;;;;;;;;;;;13.20;99.90;;;;;;8391871;28;19931;-81
2022/10/18 06:17:20;;;;;;;;;;;13.20;99.90;;;;;;8393550;28;19924;-82
2022/10/18 06:21:23;;;;;;;;;;;13.10;99.90;;;;;;8376240;28;19929;-82
2022/10/18 06:25:24;;;;;;;;;;;13.10;99.90;;;;;;8398406;28;19935;-81
2022/10/18 06:29:26;;;;;;;;;;;13.10;99.90;;;;;;8397033;28;19928;-81
2022/10/18 06:33:29;;;;;;;;;;;13.10;99.90;;;;;;8384642;28;20340;-81
2022/10/18 06:37:31;;;;;;;;;;;13.10;99.90;;;;;;8403348;28;19939;-81
2022/10/18 06:41:33;;;;;;;;;;;13.10;99.90;;;;;;8379580;28;20359;-82
2022/10/18 06:45:34;;;;;;;;;;;13.10;99.90;;;;;;8383409;28;20027;-81
2022/10/18 06:49:36;;;;;;;;;;;13.20;99.90;;;;;;8378425;28;19939;-82
2022/10/18 06:53:38;;;;;;;;;;;13.20;99.90;;;;;;8397652;28;19931;-82
2022/10/18 06:57:44;;;;;;;;;;;13.10;99.90;;;;;;8394278;28;19978;-83
2022/10/18 07:01:46;;;;;;;;;;;13.10;99.90;;;;;;8389114;28;19929;-82
2022/10/18 07:05:48;;;;;;;;;;;13.20;99.90;;;;;;8397272;28;19931;-83
2022/10/18 07:09:50;;;;;;;;;;;13.20;99.90;;;;;;8381155;28;20007;-82
2022/10/18 07:13:53;;;;;;;;;;;13.20;99.90;;;;;;8392213;28;19928;-82
2022/10/18 07:17:55;;;;;;;;;;;13.20;99.90;;;;;;8373851;28;19931;-82
2022/10/18 07:21:57;;;;;;;;;;;13.20;99.90;;;;;;8389065;28;19931;-82
2022/10/18 07:26:00;;;;;;;;;;;13.30;99.90;;;;;;8392566;28;19950;-82
2022/10/18 07:30:03;;;;;;;;;;;13.30;99.90;;;;;;8396695;28;19924;-82
2022/10/18 07:34:06;;;;;;;;;;;13.40;99.90;;;;;;8395820;28;20371;-82
2022/10/18 07:38:07;;;;;;;;;;;13.50;99.90;;;;;;8382084;28;20019;-82
2022/10/18 07:42:09;;;;;;;;;;;13.50;99.90;;;;;;8395787;28;19924;-82
2022/10/18 07:46:11;;;;;;;;;;;13.60;99.90;;;;;;8397626;28;20287;-83
2022/10/18 07:50:12;;;;;;;;;;;13.60;99.90;;;;;;8397539;28;19979;-82
2022/10/18 07:54:14;;;;;;;;;;;13.70;99.90;;;;;;8399636;28;20321;-83
2022/10/18 07:58:16;;;;;;;;;;;13.70;99.90;;;;;;8378478;28;19925;-82
2022/10/18 08:02:17;;;;;;;;;;;13.80;99.90;;;;;;8409013;28;19931;-82
2022/10/18 08:06:20;;;;;;;;;;;13.90;99.90;;;;;;8378459;28;20443;-82
2022/10/18 08:10:23;;;;;;;;;;;14.00;99.90;;;;;;8394099;28;19932;-82
2022/10/18 08:14:24;;;;;;;;;;;14.00;99.90;;;;;;8396118;28;19975;-82
2022/10/18 08:18:26;;;;;;;;;;;14.00;99.90;;;;;;8384154;28;20405;-81
2022/10/18 08:22:27;;;;;;;;;;;14.10;99.90;;;;;;8392631;28;20369;-82
2022/10/18 08:26:29;;;;;;;;;;;14.20;99.90;;;;;;8398444;28;19928;-82
2022/10/18 08:30:31;;;;;;;;;;;14.30;99.90;;;;;;8396500;28;20402;-82
2022/10/18 08:34:33;;;;;;;;;;;14.50;99.90;;;;;;8398568;28;19924;-82
2022/10/18 08:38:36;;;;;;;;;;;14.60;99.90;;;;;;8393848;28;19924;-82
2022/10/18 08:43:07;;;;;;;;;;;14.70;99.90;;;;;;8376756;28;20023;-81
2022/10/18 08:47:14;;;;;;;;;;;14.90;99.90;;;;;;8384603;28;19924;-80
2022/10/18 08:51:26;;;;;;;;;;;15.00;99.90;;;;;;8392896;28;20431;-81
2022/10/18 08:55:35;;;;;;;;;;;15.10;99.90;;;;;;8394002;28;19924;-81
2022/10/18 08:59:38;;;;;;;;;;;15.20;99.90;;;;;;8391431;28;20020;-81
2022/10/18 09:03:39;;;;;;;;;;;15.30;99.90;;;;;;8375322;28;19931;-81
2022/10/18 09:07:53;;;;;;;;;;;15.50;99.90;;;;;;8394654;28;20023;-81
2022/10/18 09:12:06;;;;;;;;;;;15.70;99.90;;;;;;8414675;28;19924;-82
2022/10/18 09:16:13;;;;;;;;;;;16.00;99.90;;;;;;8392360;28;19931;-81
2022/10/18 09:20:20;;;;;;;;;;;16.30;99.90;;;;;;8384068;28;19939;-82
2022/10/18 09:24:38;;;;;;;;;;;16.70;99.90;;;;;;8376688;28;20295;-81
2022/10/18 09:28:51;;;;;;;;;;;17.10;99.90;;;;;;8405011;28;19924;-81
2022/10/18 09:33:22;;;;;;;;;;;17.40;99.90;;;;;;8388070;28;20332;-82
2022/10/18 09:37:26;;;;;;;;;;;17.60;99.90;;;;;;8298532;28;19932;-81
2022/10/18 09:41:33;;;;;;;;;;;17.70;99.90;;;;;;8392706;28;19930;-82
2022/10/18 09:45:36;;;;;;;;;;;17.60;99.90;;;;;;8393596;28;19924;-82
2022/10/18 09:49:42;;;;;;;;;;;17.50;99.90;;;;;;8393528;28;19950;-83
2022/10/18 09:53:44;;;;;;;;;;;17.50;99.90;;;;;;8398406;28;19924;-83
2022/10/18 09:57:49;;;;;;;;;;;17.50;99.90;;;;;;8385336;28;20016;-81
2022/10/18 10:01:50;;;;;;;;;;;17.60;99.90;;;;;;8378430;28;19928;-81
2022/10/18 10:06:21;;;;;;;;;;;17.80;99.90;;;;;;8380339;28;19931;-81
2022/10/18 10:10:24;;;;;;;;;;;18.10;99.90;;;;;;8379547;28;19976;-81
2022/10/18 10:14:27;;;;;;;;;;;18.60;99.90;;;;;;8398040;28;20382;-81
2022/10/18 10:18:30;;;;;;;;;;;19.20;99.90;;;;;;8395825;28;20302;-83
2022/10/18 10:22:36;;;;;;;;;;;19.70;99.90;;;;;;8398229;28;19935;-81
2022/10/18 10:26:38;;;;;;;;;;;20.20;99.90;;;;;;8377156;28;19932;-82
2022/10/18 10:30:40;;;;;;;;;;;20.60;99.90;;;;;;8400414;28;20011;-81
2022/10/18 10:34:41;;;;;;;;;;;21.00;99.90;;;;;;8398929;28;19929;-82
2022/10/18 10:38:45;;;;;;;;;;;21.20;99.90;;;;;;8390109;28;19931;-82
2022/10/18 10:42:55;;;;;;;;;;;21.60;99.90;;;;;;8403663;28;20280;-82
2022/10/18 10:47:05;;;;;;;;;;;21.90;99.90;;;;;;8390662;28;19924;-81
2022/10/18 10:51:08;;;;;;;;;;;22.20;99.90;;;;;;8390272;28;19948;-81
2022/10/18 10:55:16;;;;;;;;;;;22.30;99.90;;;;;;8367335;28;19930;-82
2022/10/18 10:59:42;;;;;;;;;;;22.70;99.90;;;;;;8377027;28;20375;-82
2022/10/18 11:03:45;;;;;;;;;;;23.00;99.90;;;;;;8373565;28;20291;-82
2022/10/18 11:07:49;;;;;;;;;;;23.10;99.90;;;;;;8377109;28;19977;-82
2022/10/18 11:11:56;;;;;;;;;;;23.40;99.90;;;;;;8375507;28;19932;-79
2022/10/18 11:16:06;;;;;;;;;;;23.50;99.90;;;;;;8381023;28;19935;-84
2022/10/18 11:20:13;;;;;;;;;;;23.20;99.90;;;;;;8373977;28;19924;-81
2022/10/18 11:24:15;;;;;;;;;;;22.80;99.90;;;;;;8388602;28;19935;-81
2022/10/18 11:28:23;;;;;;;;;;;22.50;99.90;;;;;;8366715;28;19924;-82
2022/10/18 11:32:43;;;;;;;;;;;22.20;99.90;;;;;;8376349;28;19935;-82
2022/10/18 11:37:06;;;;;;;;;;;22.30;99.90;;;;;;8376295;28;20870;-82
2022/10/18 11:41:39;;;;;;;;;;;22.60;99.90;;;;;;8378029;28;20388;-82
2022/10/18 11:45:44;;;;;;;;;;;22.60;99.90;;;;;;8366751;28;19932;-81
2022/10/18 11:50:05;;;;;;;;;;;22.50;99.90;;;;;;8377523;28;19929;-81
2022/10/18 11:54:36;;;;;;;;;;;22.40;99.90;;;;;;8375724;28;19955;-82
2022/10/18 11:58:46;;;;;;;;;;;22.10;99.90;;;;;;8365329;28;19982;-83
2022/10/18 12:03:07;;;;;;;;;;;21.60;99.90;;;;;;8377105;28;20000;-82
2022/10/18 12:07:10;;;;;;;;;;;21.30;99.90;;;;;;8372893;28;19934;-81
2022/10/18 12:11:18;;;;;;;;;;;21.10;99.90;;;;;;8389307;28;19928;-79
2022/10/18 12:15:21;;;;;;;;;;;20.90;99.90;;;;;;8388084;28;19924;-81
2022/10/18 12:19:25;;;;;;;;;;;20.70;99.90;;;;;;8371623;28;19943;-81
2022/10/18 12:23:27;;;;;;;;;;;20.60;99.90;;;;;;8370725;28;20368;-82
2022/10/18 12:27:39;;;;;;;;;;;20.50;99.90;;;;;;8363389;28;19924;-81
2022/10/18 12:32:07;;;;;;;;;;;20.50;99.90;;;;;;8381747;28;19939;-82
2022/10/18 12:36:20;;;;;;;;;;;20.40;99.90;;;;;;8368395;28;19929;-80
2022/10/18 12:40:24;;;;;;;;;;;20.30;99.90;;;;;;8369691;28;19943;-82
2022/10/18 12:44:33;;;;;;;;;;;20.30;99.90;;;;;;8368772;28;19935;-80
2022/10/18 12:48:41;;;;;;;;;;;20.30;99.90;;;;;;8369891;28;20402;-80
2022/10/18 12:52:42;;;;;;;;;;;20.30;99.90;;;;;;8374835;28;20555;-80
2022/10/18 12:56:45;;;;;;;;;;;20.20;99.90;;;;;;8367864;28;19983;-77
2022/10/18 13:00:47;;;;;;;;;;;20.20;99.90;;;;;;8368500;28;19972;-80
2022/10/18 13:04:49;;;;;;;;;;;20.20;99.90;;;;;;8366536;28;19966;-79
2022/10/18 13:09:09;;;;;;;;;;;20.20;99.90;;;;;;8366658;28;19935;-79
2022/10/18 13:13:11;;;;;;;;;;;20.20;99.90;;;;;;8364130;28;20311;-79
2022/10/18 13:17:51;;;;;;;;;;;20.20;99.90;;;;;;8380765;28;20441;-79
2022/10/18 13:22:11;;;;;;;;;;;20.30;99.90;;;;;;8367837;28;19936;-79
2022/10/18 13:26:22;;;;;;;;;;;20.40;99.90;;;;;;8373720;28;19928;-79
2022/10/18 13:30:31;;;;;;;;;;;20.50;99.90;;;;;;8373575;28;20016;-82
2022/10/18 13:34:37;;;;;;;;;;;20.50;99.90;;;;;;8375417;28;19935;-81
2022/10/18 13:38:38;;;;;;;;;;;20.60;99.90;;;;;;8376276;28;20019;-81
2022/10/18 13:42:40;;;;;;;;;;;20.60;99.90;;;;;;8382262;28;19928;-79
2022/10/18 13:46:42;;;;;;;;;;;20.60;99.90;;;;;;8371228;28;19936;-81
2022/10/18 13:50:44;;;;;;;;;;;20.70;99.90;;;;;;8376199;28;20043;-80
2022/10/18 13:55:05;;;;;;;;;;;20.80;99.90;;;;;;8378682;28;19934;-79
2022/10/18 13:59:17;;;;;;;;;;;20.90;99.90;;;;;;8379468;28;20016;-81
2022/10/18 14:03:21;;;;;;;;;;;21.00;99.90;;;;;;8375901;28;20024;-81
2022/10/18 14:07:43;;;;;;;;;;;21.20;99.90;;;;;;8381170;28;19928;-81
2022/10/18 14:11:48;;;;;;;;;;;21.50;99.90;;;;;;8380370;28;19932;-81
2022/10/18 14:15:51;;;;;;;;;;;21.80;99.90;;;;;;8394472;28;19931;-81
2022/10/18 14:20:03;;;;;;;;;;;22.30;99.90;;;;;;8380798;28;19939;-82
2022/10/18 14:24:13;;;;;;;;;;;22.60;99.90;;;;;;8380479;28;19933;-81
2022/10/18 14:28:16;;;;;;;;;;;22.80;99.90;;;;;;8377478;28;20015;-81
2022/10/18 14:32:26;;;;;;;;;;;22.70;99.90;;;;;;8374628;28;20255;-81
2022/10/18 14:36:39;;;;;;;;;;;22.60;99.90;;;;;;8374948;28;19947;-81
2022/10/18 14:40:41;;;;;;;;;;;22.30;99.90;;;;;;8387475;28;19986;-81
2022/10/18 14:44:46;;;;;;;;;;;22.00;99.90;;;;;;8361093;28;19931;-80
2022/10/18 14:48:55;;;;;;;;;;;21.70;99.90;;;;;;8356826;28;19935;-81
2022/10/18 14:52:56;;;;;;;;;;;21.50;99.90;;;;;;8374262;28;19931;-81
2022/10/18 14:56:59;;;;;;;;;;;21.30;99.90;;;;;;8374240;28;19928;-80
2022/10/18 15:01:01;;;;;;;;;;;21.30;99.90;;;;;;8373367;28;20006;-80
2022/10/18 15:05:07;;;;;;;;;;;21.10;99.90;;;;;;8379320;28;19929;-81
2022/10/18 15:09:10;;;;;;;;;;;21.00;99.90;;;;;;8356079;28;20471;-81
2022/10/18 15:13:12;;;;;;;;;;;20.90;99.90;;;;;;8372254;28;19951;-79
2022/10/18 15:17:22;;;;;;;;;;;20.80;99.90;;;;;;8371745;28;19929;-80
2022/10/18 15:21:24;;;;;;;;;;;20.80;99.90;;;;;;8372217;28;20287;-80
2022/10/18 15:25:29;;;;;;;;;;;20.80;99.90;;;;;;8382672;28;20375;-80
2022/10/18 15:29:35;;;;;;;;;;;20.70;99.90;;;;;;8377631;28;19942;-81
2022/10/18 15:33:37;;;;;;;;;;;20.70;99.90;;;;;;8369397;28;20373;-80
2022/10/18 15:37:43;;;;;;;;;;;20.80;99.90;;;;;;8368623;28;20276;-80
2022/10/18 15:41:53;;;;;;;;;;;21.00;99.90;;;;;;8373957;28;19931;-80
2022/10/18 15:45:59;;;;;;;;;;;20.90;99.90;;;;;;8376341;28;19928;-81
2022/10/18 15:50:04;;;;;;;;;;;20.80;99.90;;;;;;8369928;28;20410;-80
2022/10/18 15:54:15;;;;;;;;;;;20.70;99.90;;;;;;8372663;28;19932;-80
2022/10/18 15:58:21;;;;;;;;;;;20.70;99.90;;;;;;8371216;28;20277;-80
2022/10/18 16:02:23;;;;;;;;;;;20.50;99.90;;;;;;8373271;28;19947;-80
2022/10/18 16:06:25;;;;;;;;;;;20.40;99.90;;;;;;8370632;28;20326;-81
2022/10/18 16:10:26;;;;;;;;;;;20.20;99.90;;;;;;8359673;28;20357;-80
2022/10/18 16:14:28;;;;;;;;;;;20.00;99.90;;;;;;8373358;28;19929;-81
2022/10/18 16:18:30;;;;;;;;;;;19.80;99.90;;;;;;8371291;28;19929;-80
2022/10/18 16:22:33;;;;;;;;;;;19.60;99.90;;;;;;8351233;28;20341;-80
2022/10/18 16:26:37;;;;;;;;;;;19.40;99.90;;;;;;8368563;28;19924;-79
2022/10/18 16:30:41;;;;;;;;;;;19.30;99.90;;;;;;8365653;28;19967;-80
2022/10/18 16:34:42;;;;;;;;;;;19.10;99.90;;;;;;8372093;28;19929;-80
2022/10/18 16:38:44;;;;;;;;;;;19.00;99.90;;;;;;8366718;28;20026;-80
2022/10/18 16:42:46;;;;;;;;;;;18.80;99.90;;;;;;8374816;28;20031;-80
2022/10/18 16:46:47;;;;;;;;;;;18.70;99.90;;;;;;8370378;28;19936;-80
2022/10/18 16:50:54;;;;;;;;;;;18.50;99.90;;;;;;8370530;28;19955;-80
2022/10/18 16:54:55;;;;;;;;;;;18.20;99.90;;;;;;8372596;28;20019;-80
2022/10/18 16:58:57;;;;;;;;;;;18.00;99.90;;;;;;8372319;28;20027;-80
2022/10/18 17:02:59;;;;;;;;;;;17.70;99.90;;;;;;8389403;28;19924;-80
2022/10/18 17:07:01;;;;;;;;;;;17.50;99.90;;;;;;8372357;28;19929;-80
2022/10/18 17:11:03;;;;;;;;;;;17.30;99.90;;;;;;8358759;28;19928;-80
2022/10/18 17:15:05;;;;;;;;;;;17.10;99.90;;;;;;8370427;28;19929;-78
2022/10/18 17:19:09;;;;;;;;;;;17.00;99.90;;;;;;8366924;28;19925;-79
2022/10/18 17:23:14;;;;;;;;;;;16.90;99.90;;;;;;8368992;28;19933;-79
2022/10/18 17:27:16;;;;;;;;;;;16.70;99.90;;;;;;8373825;28;19933;-80
2022/10/18 17:31:17;;;;;;;;;;;16.60;99.90;;;;;;8372251;28;19925;-80
2022/10/18 17:35:19;;;;;;;;;;;16.50;99.90;;;;;;8372573;28;19929;-80
2022/10/18 17:39:21;;;;;;;;;;;16.30;99.90;;;;;;8350207;28;20292;-79
2022/10/18 17:43:22;;;;;;;;;;;16.20;99.90;;;;;;8382336;28;19928;-79
2022/10/18 17:47:24;;;;;;;;;;;16.10;99.90;;;;;;8369424;28;19933;-78
2022/10/18 17:51:26;;;;;;;;;;;16.00;99.90;;;;;;8374559;28;20378;-79
2022/10/18 17:55:28;;;;;;;;;;;16.00;99.90;;;;;;8366539;28;20014;-79
2022/10/18 17:59:30;;;;;;;;;;;15.90;99.90;;;;;;8368767;28;20455;-79
2022/10/18 18:03:32;;;;;;;;;;;15.80;99.90;;;;;;8365963;28;19955;-79
2022/10/18 18:07:33;;;;;;;;;;;15.60;99.90;;;;;;8349674;28;20011;-80
2022/10/18 18:11:36;;;;;;;;;;;15.40;99.90;;;;;;8354088;28;19981;-79
2022/10/18 18:15:38;;;;;;;;;;;15.40;99.90;;;;;;8385971;28;19929;-79
2022/10/18 18:19:39;;;;;;;;;;;15.30;99.90;;;;;;8391587;28;19934;-79
2022/10/18 18:23:41;;;;;;;;;;;15.30;99.90;;;;;;8390205;28;19925;-79
2022/10/18 18:27:43;;;;;;;;;;;15.20;99.90;;;;;;8371429;28;19928;-79
2022/10/18 18:31:45;;;;;;;;;;;15.10;99.90;;;;;;8372849;28;20380;-79
2022/10/18 18:35:56;;;;;;;;;;;15.10;99.90;;;;;;8373729;28;19928;-79
2022/10/18 18:39:57;;;;;;;;;;;15.10;99.90;;;;;;8362694;28;20027;-79
2022/10/18 18:44:01;;;;;;;;;;;15.00;99.90;;;;;;8379219;28;19924;-79
2022/10/18 18:48:02;;;;;;;;;;;14.90;99.90;;;;;;8374559;28;19924;-79
2022/10/18 18:52:04;;;;;;;;;;;14.80;99.90;;;;;;8370694;28;19934;-79
2022/10/18 18:56:07;;;;;;;;;;;14.70;99.90;;;;;;8377089;28;19932;-79
2022/10/18 19:00:09;;;;;;;;;;;14.60;99.90;;;;;;8374591;28;19932;-79
2022/10/18 19:04:11;;;;;;;;;;;14.60;99.90;;;;;;8375076;28;19925;-79
2022/10/18 19:08:12;;;;;;;;;;;14.60;99.90;;;;;;8368633;28;19928;-79
2022/10/18 19:12:14;;;;;;;;;;;14.50;99.90;;;;;;8391776;28;19925;-80
2022/10/18 19:16:25;;;;;;;;;;;14.40;99.90;;;;;;8376403;28;19932;-79
2022/10/18 19:20:26;;;;;;;;;;;14.30;99.90;;;;;;8372374;28;20023;-79
2022/10/18 19:24:31;;;;;;;;;;;14.20;99.90;;;;;;8373006;28;19925;-79
2022/10/18 19:28:32;;;;;;;;;;;14.10;99.90;;;;;;8366898;28;19932;-79
2022/10/18 19:32:34;;;;;;;;;;;13.90;99.90;;;;;;8374369;28;19940;-79
2022/10/18 19:36:36;;;;;;;;;;;13.80;99.90;;;;;;8370039;28;20217;-79
2022/10/18 19:40:38;;;;;;;;;;;13.70;99.90;;;;;;8378068;28;19930;-79
2022/10/18 19:44:40;;;;;;;;;;;13.70;99.90;;;;;;8375495;28;20445;-79
2022/10/18 19:48:42;;;;;;;;;;;13.50;99.90;;;;;;8371489;28;20015;-79
2022/10/18 19:52:43;;;;;;;;;;;13.50;99.90;;;;;;8377567;28;19939;-79
2022/10/18 19:56:45;;;;;;;;;;;13.40;99.90;;;;;;8356718;28;19936;-79
2022/10/18 20:00:50;;;;;;;;;;;13.40;99.90;;;;;;8372136;28;20047;-82
2022/10/18 20:04:52;;;;;;;;;;;13.30;99.90;;;;;;8368321;28;19939;-81
2022/10/18 20:08:54;;;;;;;;;;;13.20;99.90;;;;;;8370187;28;19928;-81
2022/10/18 20:12:56;;;;;;;;;;;13.00;99.90;;;;;;8372366;28;20352;-81
2022/10/18 20:16:57;;;;;;;;;;;13.00;99.90;;;;;;8368685;28;19935;-81
2022/10/18 20:21:08;;;;;;;;;;;13.00;99.90;;;;;;8366888;28;20262;-81
2022/10/18 20:25:11;;;;;;;;;;;13.00;99.90;;;;;;8361571;28;20418;-81
2022/10/18 20:29:13;;;;;;;;;;;12.90;99.90;;;;;;8372702;28;20023;-81
2022/10/18 20:33:14;;;;;;;;;;;12.80;99.90;;;;;;8376040;28;19964;-81
2022/10/18 20:37:16;;;;;;;;;;;12.80;99.90;;;;;;8369726;28;19932;-80
2022/10/18 20:41:19;;;;;;;;;;;12.70;99.90;;;;;;8369154;28;20288;-81
2022/10/18 20:45:22;;;;;;;;;;;12.70;99.90;;;;;;8353663;28;20026;-80
2022/10/18 20:49:23;;;;;;;;;;;12.60;99.90;;;;;;8372583;28;19929;-80
2022/10/18 20:53:25;;;;;;;;;;;12.60;99.90;;;;;;8372415;28;20257;-81
2022/10/18 20:57:28;;;;;;;;;;;12.50;99.90;;;;;;8360954;28;19933;-81
2022/10/18 21:01:32;;;;;;;;;;;12.40;99.90;;;;;;8383764;28;19940;-80
2022/10/18 21:05:34;;;;;;;;;;;12.40;99.90;;;;;;8394904;28;20237;-81
2022/10/18 21:09:36;;;;;;;;;;;12.30;99.90;;;;;;8389063;28;20023;-80
2022/10/18 21:13:39;;;;;;;;;;;12.30;99.90;;;;;;8394065;28;19936;-81
2022/10/18 21:17:41;;;;;;;;;;;12.20;99.90;;;;;;8396578;28;19968;-80
2022/10/18 21:21:43;;;;;;;;;;;12.10;99.90;;;;;;8373998;28;19931;-81
2022/10/18 21:25:46;;;;;;;;;;;12.00;99.90;;;;;;8393373;28;19940;-81
2022/10/18 21:29:48;;;;;;;;;;;12.00;99.90;;;;;;8380196;28;19924;-81
2022/10/18 21:33:56;;;;;;;;;;;11.90;99.90;;;;;;8395498;28;19960;-81
2022/10/18 21:37:58;;;;;;;;;;;11.80;99.90;;;;;;8383900;28;19931;-81
2022/10/18 21:41:59;;;;;;;;;;;11.80;99.90;;;;;;8389362;28;20299;-81
2022/10/18 21:46:01;;;;;;;;;;;11.80;99.90;;;;;;8392011;28;19970;-81
2022/10/18 21:50:03;;;;;;;;;;;11.80;99.90;;;;;;8397002;28;19931;-81
2022/10/18 21:54:06;;;;;;;;;;;11.70;99.90;;;;;;8391609;28;20333;-80
2022/10/18 21:58:07;;;;;;;;;;;11.70;99.90;;;;;;8391861;28;19927;-81
2022/10/18 22:02:09;;;;;;;;;;;11.70;99.90;;;;;;8380941;28;19928;-81
2022/10/18 22:06:13;;;;;;;;;;;11.60;99.90;;;;;;8396050;28;19925;-81
2022/10/18 22:10:14;;;;;;;;;;;11.60;99.90;;;;;;8382312;28;20306;-81
2022/10/18 22:14:16;;;;;;;;;;;11.50;99.90;;;;;;8396646;28;19931;-81
2022/10/18 22:18:18;;;;;;;;;;;11.50;99.90;;;;;;8402669;28;19924;-81
2022/10/18 22:22:19;;;;;;;;;;;11.40;99.90;;;;;;8395106;28;19924;-81
2022/10/18 22:26:22;;;;;;;;;;;11.40;99.90;;;;;;8375086;28;19928;-81
2022/10/18 22:30:24;;;;;;;;;;;11.40;99.90;;;;;;8394844;28;20367;-81
2022/10/18 22:34:29;;;;;;;;;;;11.30;99.90;;;;;;8383542;28;19977;-81
2022/10/18 22:38:34;;;;;;;;;;;11.20;99.90;;;;;;8392494;28;19935;-81
2022/10/18 22:42:35;;;;;;;;;;;11.20;99.90;;;;;;8377286;28;19931;-81
2022/10/18 22:46:37;;;;;;;;;;;11.10;99.90;;;;;;8392889;28;19932;-81
2022/10/18 22:50:39;;;;;;;;;;;11.10;99.90;;;;;;8394848;28;20374;-80
2022/10/18 22:54:40;;;;;;;;;;;11.00;99.90;;;;;;8375342;28;20016;-80
2022/10/18 22:58:42;;;;;;;;;;;11.00;99.90;;;;;;8393253;28;19924;-81
2022/10/18 23:02:44;;;;;;;;;;;10.90;99.90;;;;;;8392834;28;19931;-81
2022/10/18 23:06:45;;;;;;;;;;;10.90;99.90;;;;;;8392615;28;22041;-81
2022/10/18 23:10:50;;;;;;;;;;;10.90;99.90;;;;;;8393147;28;19936;-80
2022/10/18 23:14:52;;;;;;;;;;;10.90;99.90;;;;;;8373324;28;19928;-81
2022/10/18 23:18:54;;;;;;;;;;;10.90;99.90;;;;;;8392233;28;19970;-81
2022/10/18 23:22:56;;;;;;;;;;;10.80;99.90;;;;;;8394995;28;19924;-81
2022/10/18 23:26:58;;;;;;;;;;;10.70;99.90;;;;;;8394683;28;19925;-81
2022/10/18 23:31:03;;;;;;;;;;;10.60;99.90;;;;;;8389825;28;19925;-81
2022/10/18 23:35:05;;;;;;;;;;;10.60;99.90;;;;;;8377361;28;19946;-81
2022/10/18 23:39:07;;;;;;;;;;;10.50;99.90;;;;;;8395050;28;19950;-81
2022/10/18 23:43:08;;;;;;;;;;;10.50;99.90;;;;;;8389890;28;19947;-81
2022/10/18 23:47:10;;;;;;;;;;;10.40;99.90;;;;;;8392173;28;19924;-80
2022/10/18 23:51:11;;;;;;;;;;;10.40;99.90;;;;;;8393995;28;20434;-81
2022/10/18 23:55:13;;;;;;;;;;;10.40;99.90;;;;;;8390829;28;20279;-81
2022/10/18 23:59:15;;;;;;;;;;;10.40;99.90;;;;;;8385066;28;19925;-81
